Sargent, Texas
Current Conditions -  °F | °C
As of 11:53 AM on Sunday 21 Dec 2014 (Local Time) from KLBX Reporting Station
Overcast Overcast  
Wind Chill: 57°   Ceiling: 8500
Heat Index: 57°   Visibility: 10mi
Dew Point: 51°   Wind: 3mph
Humidity: 81%   Direction: NA
Pressure: 30.08"   Gusts: NA
Location:  28.8997°N, 95.7887°W
Report Text: KLBX 211753Z AUTO VRB03KT 10SM OVC085 14/11 A3008 RMK AO2 SLP184 T01390106 10139 20100 58015
Loading
Personal Weather Stations






























Interactive Weather Map New forecast layout! Learn more

10-Day Weather Forecast

Advertisements
Track Severe Weather on mobile